Time;durP1;ratioP1;P1;durP2;ratioP2;P2;SDS_P1;SDS_P2;PMS_P1;PMS_P2;Temp;Humidity;BMP_temperature;BMP_pressure;BME280_temperature;BME280_humidity;BME280_pressure;Samples;Min_cycle;Max_cycle;Signal;HPM_P1;HPM_P2
2021/04/01 00:00:01;;;;;;;8.57;3.35;;;;;;;;;;5092164;28;20040;-76
2021/04/01 00:02:28;;;;;;;7.63;3.05;;;;;;;;;;5093328;28;20413;-76
2021/04/01 00:04:54;;;;;;;5.53;3.13;;;;;;;;;;5093418;28;20139;-76
2021/04/01 00:07:19;;;;;;;5.82;3.15;;;;;;;;;;5093330;28;20035;-76
2021/04/01 00:09:45;;;;;;;5.03;3.10;;;;;;;;;;5093038;28;20089;-77
2021/04/01 00:12:10;;;;;;;5.18;3.10;;;;;;;;;;5092633;28;20081;-76
2021/04/01 00:14:36;;;;;;;7.80;3.05;;;;;;;;;;5092015;28;20107;-76
2021/04/01 00:17:02;;;;;;;9.35;3.20;;;;;;;;;;5093307;28;20470;-76
2021/04/01 00:19:28;;;;;;;5.22;2.97;;;;;;;;;;5092538;28;20024;-76
2021/04/01 00:21:54;;;;;;;4.25;2.63;;;;;;;;;;5093096;28;20124;-76
2021/04/01 00:24:19;;;;;;;5.38;3.45;;;;;;;;;;5093084;28;20036;-76
2021/04/01 00:26:45;;;;;;;4.55;3.25;;;;;;;;;;5093309;28;20526;-76
2021/04/01 00:29:10;;;;;;;7.38;3.85;;;;;;;;;;5091878;28;20116;-76
2021/04/01 00:31:36;;;;;;;3.97;2.85;;;;;;;;;;5093184;28;20471;-76
2021/04/01 00:34:01;;;;;;;7.38;3.25;;;;;;;;;;5093297;28;20526;-76
2021/04/01 00:36:27;;;;;;;4.40;2.65;;;;;;;;;;5091894;28;20032;-76
2021/04/01 00:38:52;;;;;;;4.07;2.72;;;;;;;;;;5091972;28;20036;-76
2021/04/01 00:41:18;;;;;;;8.32;3.25;;;;;;;;;;5092332;28;20056;-76
2021/04/01 00:43:44;;;;;;;8.73;4.03;;;;;;;;;;5092962;28;20036;-76
2021/04/01 00:46:09;;;;;;;8.68;4.18;;;;;;;;;;5092081;28;20034;-76
2021/04/01 00:48:35;;;;;;;10.45;3.85;;;;;;;;;;5091663;28;20040;-76
2021/04/01 00:51:01;;;;;;;4.53;3.00;;;;;;;;;;5093122;28;20032;-76
2021/04/01 00:53:27;;;;;;;8.13;2.80;;;;;;;;;;5092928;28;20028;-76
2021/04/01 00:55:53;;;;;;;4.72;2.75;;;;;;;;;;5092693;28;20035;-76
2021/04/01 00:58:18;;;;;;;9.00;3.33;;;;;;;;;;5092193;28;20035;-77
2021/04/01 01:00:46;;;;;;;10.80;3.70;;;;;;;;;;5092765;28;20028;-77
2021/04/01 01:03:11;;;;;;;5.85;3.17;;;;;;;;;;5092837;28;20043;-76
2021/04/01 01:05:37;;;;;;;8.98;4.15;;;;;;;;;;5092860;28;20032;-76
2021/04/01 01:08:03;;;;;;;7.18;3.63;;;;;;;;;;5092554;28;20462;-76
2021/04/01 01:10:32;;;;;;;8.88;3.95;;;;;;;;;;5091327;28;20036;-76
2021/04/01 01:12:58;;;;;;;6.65;3.70;;;;;;;;;;5091569;28;20028;-76
2021/04/01 01:15:24;;;;;;;4.78;3.10;;;;;;;;;;5092899;28;20654;-77
2021/04/01 01:17:52;;;;;;;6.28;3.42;;;;;;;;;;5092577;28;20059;-76
2021/04/01 01:20:21;;;;;;;6.65;3.05;;;;;;;;;;5092815;28;20040;-76
2021/04/01 01:22:48;;;;;;;5.50;3.20;;;;;;;;;;5094078;28;20044;-76
2021/04/01 01:25:14;;;;;;;6.38;2.92;;;;;;;;;;5096791;28;20040;-76
2021/04/01 01:27:40;;;;;;;5.40;3.05;;;;;;;;;;5096139;28;20063;-76
2021/04/01 01:30:09;;;;;;;6.78;3.40;;;;;;;;;;5096630;28;20032;-76
2021/04/01 01:32:39;;;;;;;5.07;3.17;;;;;;;;;;5096349;28;20028;-76
2021/04/01 01:35:26;;;;;;;5.72;3.15;;;;;;;;;;5096591;28;20043;-77
2021/04/01 01:38:06;;;;;;;5.93;3.40;;;;;;;;;;5096482;28;20405;-75
2021/04/01 01:40:33;;;;;;;6.35;4.20;;;;;;;;;;5084886;28;20032;-75
2021/04/01 01:43:03;;;;;;;7.13;4.00;;;;;;;;;;5075659;28;20040;-76
2021/04/01 01:45:30;;;;;;;7.95;3.50;;;;;;;;;;5075869;28;20032;-75
2021/04/01 01:47:57;;;;;;;7.57;3.45;;;;;;;;;;5075721;28;20040;-76
2021/04/01 01:50:29;;;;;;;5.13;3.30;;;;;;;;;;5057976;28;20067;-75
2021/04/01 01:52:55;;;;;;;8.38;3.55;;;;;;;;;;5075783;28;20058;-77
2021/04/01 01:55:21;;;;;;;9.55;4.38;;;;;;;;;;5074484;28;20040;-76
2021/04/01 01:57:46;;;;;;;11.85;4.07;;;;;;;;;;5075175;28;20040;-77
2021/04/01 02:00:16;;;;;;;7.55;3.90;;;;;;;;;;5074643;28;20040;-76
2021/04/01 02:02:58;;;;;;;6.53;3.60;;;;;;;;;;5075446;28;20071;-76
2021/04/01 02:05:26;;;;;;;9.48;3.22;;;;;;;;;;5075697;28;20433;-76
2021/04/01 02:07:52;;;;;;;5.05;3.45;;;;;;;;;;5075442;28;20040;-76
2021/04/01 02:10:30;;;;;;;6.38;4.30;;;;;;;;;;5075266;28;20467;-76
2021/04/01 02:12:57;;;;;;;9.27;3.72;;;;;;;;;;5075253;28;20391;-76
2021/04/01 02:15:30;;;;;;;10.75;4.93;;;;;;;;;;5074411;28;20041;-76
2021/04/01 02:18:12;;;;;;;10.25;3.70;;;;;;;;;;5074372;28;20036;-76
2021/04/01 02:20:41;;;;;;;7.50;3.97;;;;;;;;;;5075385;28;20359;-76
2021/04/01 02:23:14;;;;;;;5.35;3.67;;;;;;;;;;5074938;28;20041;-76
2021/04/01 02:25:41;;;;;;;6.53;3.28;;;;;;;;;;5075253;28;20059;-76
2021/04/01 02:28:08;;;;;;;5.97;3.17;;;;;;;;;;5099631;28;20043;-76
2021/04/01 02:30:34;;;;;;;5.00;2.63;;;;;;;;;;5115882;28;20533;-76
2021/04/01 02:33:00;;;;;;;6.90;3.60;;;;;;;;;;5106680;28;20486;-76
2021/04/01 02:35:25;;;;;;;4.40;3.20;;;;;;;;;;5095228;28;20038;-76
2021/04/01 02:37:51;;;;;;;6.93;3.20;;;;;;;;;;5095190;28;20040;-75
2021/04/01 02:40:17;;;;;;;7.22;3.53;;;;;;;;;;5078323;28;20063;-75
2021/04/01 02:42:43;;;;;;;5.85;3.70;;;;;;;;;;5074684;28;20036;-77
2021/04/01 02:45:10;;;;;;;7.35;4.00;;;;;;;;;;5074939;28;20029;-76
2021/04/01 02:47:36;;;;;;;3.78;3.10;;;;;;;;;;5074916;28;20040;-78
2021/04/01 02:50:04;;;;;;;6.63;3.58;;;;;;;;;;5074593;28;20036;-76
2021/04/01 02:52:36;;;;;;;4.97;3.22;;;;;;;;;;5073387;28;20054;-77
2021/04/01 02:55:04;;;;;;;5.45;3.30;;;;;;;;;;5074358;28;20471;-76
2021/04/01 02:57:29;;;;;;;6.07;3.25;;;;;;;;;;5074469;28;20038;-76
2021/04/01 02:59:56;;;;;;;9.68;3.28;;;;;;;;;;5073339;28;20036;-76
2021/04/01 03:02:23;;;;;;;5.90;2.95;;;;;;;;;;5074239;28;20070;-77
2021/04/01 03:04:49;;;;;;;6.60;3.50;;;;;;;;;;5074801;28;20047;-76
2021/04/01 03:07:14;;;;;;;9.35;4.82;;;;;;;;;;5074446;28;20040;-76
2021/04/01 03:09:40;;;;;;;11.60;3.85;;;;;;;;;;5094123;28;20036;-76
2021/04/01 03:12:06;;;;;;;5.20;3.45;;;;;;;;;;5115025;28;20040;-75
2021/04/01 03:14:33;;;;;;;8.25;3.65;;;;;;;;;;5095854;28;20471;-75
2021/04/01 03:16:58;;;;;;;5.45;3.45;;;;;;;;;;5074016;28;20035;-76
2021/04/01 03:19:24;;;;;;;4.80;3.50;;;;;;;;;;5074070;28;20036;-77
2021/04/01 03:21:49;;;;;;;8.80;3.85;;;;;;;;;;5073611;28;20044;-76
2021/04/01 03:24:16;;;;;;;7.05;3.47;;;;;;;;;;5073576;28;20036;-76
2021/04/01 03:26:42;;;;;;;9.27;4.93;;;;;;;;;;5074007;28;20037;-76
2021/04/01 03:29:08;;;;;;;10.40;4.95;;;;;;;;;;5073896;28;20040;-76
2021/04/01 03:31:33;;;;;;;9.57;5.28;;;;;;;;;;5073805;28;20509;-76
2021/04/01 03:33:59;;;;;;;9.00;5.30;;;;;;;;;;5073597;28;20032;-76
2021/04/01 03:36:24;;;;;;;7.82;4.28;;;;;;;;;;5073530;28;20068;-80
2021/04/01 03:38:50;;;;;;;12.23;4.55;;;;;;;;;;5113598;28;20036;-76
2021/04/01 03:41:16;;;;;;;5.85;4.20;;;;;;;;;;5114409;28;20046;-76
2021/04/01 03:43:41;;;;;;;8.13;3.88;;;;;;;;;;5105347;28;20032;-75
2021/04/01 03:46:08;;;;;;;8.07;4.03;;;;;;;;;;5073035;28;20123;-76
2021/04/01 03:48:33;;;;;;;8.63;4.57;;;;;;;;;;5073405;28;20506;-77
2021/04/01 03:50:59;;;;;;;8.68;4.15;;;;;;;;;;5072072;28;20509;-76
2021/04/01 03:53:24;;;;;;;9.93;3.95;;;;;;;;;;5073118;28;20063;-76
2021/04/01 03:55:51;;;;;;;11.95;5.07;;;;;;;;;;5073427;28;20115;-76
2021/04/01 04:03:41;;;;;;;14.73;4.70;;;;;;;;;;5073258;28;20498;-76
2021/04/01 04:11:40;;;;;;;11.57;4.05;;;;;;;;;;5073274;28;20044;-76
2021/04/01 04:16:41;;;;;;;10.93;4.70;;;;;;;;;;5072928;28;20045;-76
2021/04/01 04:19:07;;;;;;;14.60;5.00;;;;;;;;;;5091088;28;20062;-76
2021/04/01 04:21:33;;;;;;;11.40;5.63;;;;;;;;;;5112342;28;20100;-76
2021/04/01 04:23:59;;;;;;;15.70;5.63;;;;;;;;;;5113402;28;20481;-76
2021/04/01 04:26:25;;;;;;;11.13;6.38;;;;;;;;;;5113617;28;20032;-77
2021/04/01 04:28:50;;;;;;;12.30;5.63;;;;;;;;;;5113580;28;20051;-77
2021/04/01 04:31:16;;;;;;;9.32;4.45;;;;;;;;;;5113896;28;20346;-76
2021/04/01 04:33:41;;;;;;;10.48;4.75;;;;;;;;;;5087140;28;20049;-77
2021/04/01 04:36:08;;;;;;;9.65;4.95;;;;;;;;;;5071607;28;20037;-76
2021/04/01 04:38:34;;;;;;;6.30;4.20;;;;;;;;;;5072368;28;20115;-76
2021/04/01 04:40:59;;;;;;;7.88;4.55;;;;;;;;;;5071701;28;20028;-76
2021/04/01 04:43:27;;;;;;;6.38;4.00;;;;;;;;;;5072646;28;20085;-76
2021/04/01 04:45:53;;;;;;;5.03;3.90;;;;;;;;;;5081226;28;20168;-76
2021/04/01 04:48:19;;;;;;;7.18;4.60;;;;;;;;;;5113407;28;20469;-77
2021/04/01 04:50:45;;;;;;;8.77;5.13;;;;;;;;;;5112390;28;20040;-76
2021/04/01 04:53:12;;;;;;;8.13;4.78;;;;;;;;;;5112374;28;20024;-76
2021/04/01 04:55:38;;;;;;;7.82;5.13;;;;;;;;;;5114241;28;20106;-76
2021/04/01 04:58:16;;;;;;;7.15;4.70;;;;;;;;;;5117705;28;20123;-76
2021/04/01 05:06:06;;;;;;;6.85;4.57;;;;;;;;;;5117583;28;20036;-75
2021/04/01 05:08:32;;;;;;;15.10;4.47;;;;;;;;;;5117020;28;20046;-76
2021/04/01 05:10:58;;;;;;;11.85;4.80;;;;;;;;;;5117618;28;20027;-74
2021/04/01 05:13:23;;;;;;;7.30;4.65;;;;;;;;;;5109219;28;20473;-75
2021/04/01 05:15:50;;;;;;;6.80;4.30;;;;;;;;;;5097087;28;20075;-74
2021/04/01 05:18:25;;;;;;;8.90;4.70;;;;;;;;;;5096855;28;20040;-74
2021/04/01 05:20:52;;;;;;;7.10;4.68;;;;;;;;;;5096838;28;20040;-74
2021/04/01 05:23:26;;;;;;;9.02;4.50;;;;;;;;;;5095482;28;20060;-74
2021/04/01 05:26:03;;;;;;;8.07;4.22;;;;;;;;;;5096802;28;20136;-74
2021/04/01 05:28:33;;;;;;;8.90;4.78;;;;;;;;;;5095185;28;20067;-74
2021/04/01 05:30:59;;;;;;;7.18;4.30;;;;;;;;;;5096769;28;20373;-74
2021/04/01 05:33:31;;;;;;;7.68;4.35;;;;;;;;;;5096387;28;20466;-75
2021/04/01 05:35:57;;;;;;;13.57;5.03;;;;;;;;;;5095735;28;20043;-75
2021/04/01 05:38:22;;;;;;;10.70;5.03;;;;;;;;;;5080951;28;20033;-76
2021/04/01 05:40:47;;;;;;;10.40;3.95;;;;;;;;;;5075851;28;20032;-76
2021/04/01 05:43:19;;;;;;;12.65;5.82;;;;;;;;;;5075150;28;20048;-76
2021/04/01 05:45:49;;;;;;;15.65;6.25;;;;;;;;;;5075994;28;20055;-76
2021/04/01 05:48:24;;;;;;;7.13;4.38;;;;;;;;;;5075850;28;20102;-76
2021/04/01 06:02:18;;;;;;;18.83;7.27;;;;;;;;;;5075912;28;20086;-76
2021/04/01 06:04:50;;;;;;;9.10;5.18;;;;;;;;;;5075750;28;20054;-77
2021/04/01 06:07:25;;;;;;;8.07;4.95;;;;;;;;;;5074182;28;20174;-75
2021/04/01 06:09:56;;;;;;;9.50;5.00;;;;;;;;;;5086403;28;20043;-77
2021/04/01 06:12:22;;;;;;;12.05;5.10;;;;;;;;;;5096153;28;20115;-77
2021/04/01 06:15:03;;;;;;;14.23;6.72;;;;;;;;;;5097566;28;20044;-78
2021/04/01 06:17:31;;;;;;;7.13;5.35;;;;;;;;;;5097472;28;20120;-78
2021/04/01 06:20:00;;;;;;;16.83;6.25;;;;;;;;;;5095539;28;20028;-77
2021/04/01 06:22:27;;;;;;;13.50;7.22;;;;;;;;;;5096939;28;20573;-76
2021/04/01 06:24:53;;;;;;;14.57;7.22;;;;;;;;;;5094521;28;20023;-76
2021/04/01 06:27:33;;;;;;;12.82;7.25;;;;;;;;;;5093607;28;20047;-76
2021/04/01 06:30:16;;;;;;;13.32;8.45;;;;;;;;;;5094644;28;20064;-78
2021/04/01 06:32:46;;;;;;;26.27;7.63;;;;;;;;;;5095302;28;20114;-76
2021/04/01 06:35:21;;;;;;;12.18;5.85;;;;;;;;;;5095238;28;20039;-76
2021/04/01 06:40:38;;;;;;;10.10;6.00;;;;;;;;;;5095075;28;20535;-76
2021/04/01 06:43:22;;;;;;;10.98;6.03;;;;;;;;;;5094653;28;20031;-76
2021/04/01 06:45:59;;;;;;;10.07;6.88;;;;;;;;;;5093835;28;20052;-76
2021/04/01 06:48:57;;;;;;;11.65;7.80;;;;;;;;;;5093459;28;20478;-78
2021/04/01 06:51:35;;;;;;;;;;;;;;;;;;5095368;28;20036;-79
2021/04/01 07:03:26;;;;;;;12.20;7.18;;;;;;;;;;5094560;28;20401;-76
2021/04/01 07:05:53;;;;;;;14.52;7.18;;;;;;;;;;5094419;28;20135;-76
2021/04/01 07:08:30;;;;;;;12.45;7.03;;;;;;;;;;5093173;28;20122;-76
2021/04/01 07:11:01;;;;;;;11.73;6.53;;;;;;;;;;5094670;28;20115;-78
2021/04/01 07:13:33;;;;;;;18.52;7.30;;;;;;;;;;5092880;28;20024;-76
2021/04/01 07:16:11;;;;;;;20.67;7.03;;;;;;;;;;5076361;28;20071;-77
2021/04/01 07:35:36;;;;;;;9.57;6.88;;;;;;;;;;5073938;28;20445;-77
2021/04/01 07:46:29;;;;;;;11.23;8.15;;;;;;;;;;5073438;28;20067;-77
2021/04/01 07:49:05;;;;;;;29.45;8.85;;;;;;;;;;5073832;28;20028;-75
2021/04/01 07:54:09;;;;;;;15.70;7.75;;;;;;;;;;5073517;28;20040;-76
2021/04/01 07:56:48;;;;;;;14.38;8.18;;;;;;;;;;5073550;28;20067;-76
2021/04/01 08:04:41;;;;;;;15.25;8.43;;;;;;;;;;5073678;28;20044;-75
2021/04/01 08:07:14;;;;;;;19.35;11.10;;;;;;;;;;5073383;28;20032;-75
2021/04/01 08:09:43;;;;;;;20.77;12.38;;;;;;;;;;5073509;28;20067;-76
2021/04/01 08:12:34;;;;;;;23.27;13.23;;;;;;;;;;5073349;28;20032;-78
2021/04/01 08:15:08;;;;;;;27.77;15.07;;;;;;;;;;5092236;28;20401;-77
2021/04/01 08:20:15;;;;;;;23.58;11.23;;;;;;;;;;5094431;28;20391;-77
2021/04/01 08:22:47;;;;;;;12.65;8.52;;;;;;;;;;5093392;28;20036;-78
2021/04/01 08:25:18;;;;;;;15.15;8.68;;;;;;;;;;5085494;28;20085;-77
2021/04/01 08:27:54;;;;;;;24.15;10.00;;;;;;;;;;5072840;28;20060;-76
2021/04/01 08:31:06;;;;;;;16.92;11.15;;;;;;;;;;5072371;28;20506;-77
2021/04/01 08:35:55;;;;;;;25.58;12.93;;;;;;;;;;5073065;28;20036;-77
2021/04/01 08:38:21;;;;;;;28.88;16.60;;;;;;;;;;5071728;28;20063;-77
2021/04/01 08:40:48;;;;;;;29.13;17.60;;;;;;;;;;5072860;28;20047;-76
2021/04/01 08:43:24;;;;;;;36.53;20.45;;;;;;;;;;5072781;28;20032;-76
2021/04/01 08:46:15;;;;;;;34.22;20.50;;;;;;;;;;5072129;28;20060;-77
2021/04/01 08:49:02;;;;;;;39.67;20.35;;;;;;;;;;5074321;28;20029;-77
2021/04/01 08:52:01;;;;;;;36.83;20.38;;;;;;;;;;5073165;28;20040;-77
2021/04/01 08:54:39;;;;;;;40.00;26.27;;;;;;;;;;5072842;28;20039;-76
2021/04/01 08:57:10;;;;;;;45.92;27.73;;;;;;;;;;5071608;28;20048;-77
2021/04/01 08:59:53;;;;;;;45.10;27.20;;;;;;;;;;5072792;28;20043;-77
2021/04/01 09:02:22;;;;;;;49.40;29.13;;;;;;;;;;5071982;28;20055;-76
2021/04/01 09:04:49;;;;;;;52.00;27.63;;;;;;;;;;5072523;28;20051;-76
2021/04/01 09:07:24;;;;;;;44.90;28.02;;;;;;;;;;5071410;28;20036;-80
2021/04/01 09:09:51;;;;;;;44.67;28.25;;;;;;;;;;5073895;28;20048;-79
2021/04/01 09:15:02;;;;;;;57.40;31.50;;;;;;;;;;5077182;28;20036;-77
2021/04/01 09:17:29;;;;;;;52.15;30.85;;;;;;;;;;5074564;28;20126;-79
2021/04/01 09:19:55;;;;;;;53.75;31.95;;;;;;;;;;5083238;28;20024;-83
2021/04/01 09:22:23;;;;;;;55.63;33.72;;;;;;;;;;5102479;28;20046;-78
2021/04/01 09:25:04;;;;;;;47.00;29.63;;;;;;;;;;5098942;28;20051;-80
2021/04/01 09:27:30;;;;;;;51.15;31.70;;;;;;;;;;5098378;28;20040;-81
2021/04/01 09:30:06;;;;;;;53.45;32.35;;;;;;;;;;5095771;28;20035;-77
2021/04/01 09:32:34;;;;;;;50.58;30.50;;;;;;;;;;5092862;28;20047;-76
2021/04/01 09:35:01;;;;;;;50.85;31.85;;;;;;;;;;5092961;28;20501;-77
2021/04/01 09:37:27;;;;;;;53.40;32.60;;;;;;;;;;5092248;28;20043;-77
2021/04/01 09:40:10;;;;;;;56.30;35.72;;;;;;;;;;5090105;28;20070;-77
2021/04/01 09:42:48;;;;;;;51.58;32.88;;;;;;;;;;5089061;28;20032;-77
2021/04/01 09:45:29;;;;;;;52.33;32.38;;;;;;;;;;5083611;28;20115;-79
2021/04/01 09:48:07;;;;;;;54.50;34.25;;;;;;;;;;5088086;28;20077;-78
2021/04/01 09:50:40;;;;;;;48.70;32.08;;;;;;;;;;5093139;28;20040;-79
2021/04/01 09:53:14;;;;;;;50.08;30.88;;;;;;;;;;5092760;28;20458;-78
2021/04/01 09:55:45;;;;;;;54.53;33.17;;;;;;;;;;5090538;28;20093;-81
2021/04/01 09:58:25;;;;;;;53.80;32.00;;;;;;;;;;5086794;28;20485;-80
2021/04/01 10:01:26;;;;;;;52.17;32.50;;;;;;;;;;5086452;28;20385;-80
2021/04/01 10:03:57;;;;;;;49.85;33.53;;;;;;;;;;5089370;28;20036;-79
2021/04/01 10:06:43;;;;;;;53.42;34.25;;;;;;;;;;5092723;28;20039;-76
2021/04/01 10:09:14;;;;;;;54.65;31.63;;;;;;;;;;5085787;28;20119;-77
2021/04/01 10:11:45;;;;;;;53.10;33.63;;;;;;;;;;5075902;28;20390;-77
2021/04/01 10:14:12;;;;;;;51.58;34.22;;;;;;;;;;5077452;28;20050;-77
2021/04/01 10:17:01;;;;;;;54.40;33.55;;;;;;;;;;5114639;28;20075;-78
2021/04/01 10:19:46;;;;;;;52.28;33.83;;;;;;;;;;5115822;28;20031;-77
2021/04/01 10:22:33;;;;;;;58.28;36.85;;;;;;;;;;5116267;28;20035;-77
2021/04/01 10:25:23;;;;;;;50.47;33.45;;;;;;;;;;5116028;28;20047;-78
2021/04/01 10:27:56;;;;;;;52.95;34.60;;;;;;;;;;5115875;28;20055;-78
2021/04/01 10:30:27;;;;;;;51.35;32.05;;;;;;;;;;5099773;28;20074;-77
2021/04/01 10:32:57;;;;;;;53.17;33.38;;;;;;;;;;5116040;28;20117;-76
2021/04/01 10:35:25;;;;;;;50.17;33.97;;;;;;;;;;5115220;28;20039;-76
2021/04/01 10:37:52;;;;;;;57.50;35.08;;;;;;;;;;5116772;28;20035;-76
2021/04/01 10:40:20;;;;;;;53.13;31.25;;;;;;;;;;5108717;28;20039;-75
2021/04/01 10:42:47;;;;;;;46.20;29.83;;;;;;;;;;5095930;28;20032;-75
2021/04/01 10:45:20;;;;;;;53.00;30.50;;;;;;;;;;5095892;28;20124;-75
2021/04/01 10:47:56;;;;;;;46.22;28.27;;;;;;;;;;5095879;28;20104;-75
2021/04/01 10:50:22;;;;;;;46.53;28.90;;;;;;;;;;5095060;28;20032;-75
2021/04/01 10:52:48;;;;;;;43.70;28.70;;;;;;;;;;5093866;28;20072;-75
2021/04/01 10:55:14;;;;;;;44.30;27.38;;;;;;;;;;5094604;28;20101;-75
2021/04/01 10:57:40;;;;;;;51.50;30.50;;;;;;;;;;5094809;28;20382;-75
2021/04/01 11:00:10;;;;;;;48.78;29.85;;;;;;;;;;5093726;28;20447;-75
2021/04/01 11:02:54;;;;;;;45.63;28.77;;;;;;;;;;5093560;28;20028;-75
2021/04/01 11:05:23;;;;;;;45.75;28.45;;;;;;;;;;5094830;28;20428;-75
2021/04/01 11:08:00;;;;;;;41.47;25.80;;;;;;;;;;5094776;28;20081;-75
2021/04/01 11:10:28;;;;;;;48.13;25.42;;;;;;;;;;5092315;28;20434;-75
2021/04/01 11:12:59;;;;;;;43.50;24.38;;;;;;;;;;5094189;28;20040;-75
2021/04/01 11:15:29;;;;;;;40.25;22.70;;;;;;;;;;5094552;28;20373;-75
2021/04/01 11:18:05;;;;;;;37.88;23.10;;;;;;;;;;5094368;28;20085;-75
2021/04/01 11:20:35;;;;;;;45.67;23.17;;;;;;;;;;5093022;28;20439;-75
2021/04/01 11:23:05;;;;;;;42.72;21.85;;;;;;;;;;5093734;28;20032;-75
2021/04/01 11:25:31;;;;;;;42.72;23.17;;;;;;;;;;5093919;28;20051;-75
2021/04/01 11:27:57;;;;;;;34.38;21.25;;;;;;;;;;5093948;28;20494;-75
2021/04/01 11:30:40;;;;;;;40.10;22.85;;;;;;;;;;5094437;28;20040;-75
2021/04/01 11:33:06;;;;;;;37.08;21.13;;;;;;;;;;5092739;28;20036;-75
2021/04/01 11:35:32;;;;;;;37.25;24.40;;;;;;;;;;5093009;28;20501;-75
2021/04/01 11:37:58;;;;;;;42.15;25.08;;;;;;;;;;5093052;28;20103;-75
2021/04/01 11:40:23;;;;;;;53.92;30.90;;;;;;;;;;5093855;28;20127;-75
2021/04/01 11:43:01;;;;;;;43.00;28.90;;;;;;;;;;5093019;28;20485;-75
2021/04/01 11:45:37;;;;;;;44.95;29.48;;;;;;;;;;5094072;28;20051;-75
2021/04/01 11:48:04;;;;;;;44.63;28.08;;;;;;;;;;5093986;28;20501;-75
2021/04/01 11:50:30;;;;;;;39.33;25.55;;;;;;;;;;5093520;28;20436;-75
2021/04/01 11:52:57;;;;;;;41.22;26.42;;;;;;;;;;5093788;28;20097;-75
2021/04/01 11:55:23;;;;;;;43.47;28.50;;;;;;;;;;5092271;28;20052;-75
2021/04/01 11:57:49;;;;;;;40.20;25.92;;;;;;;;;;5093628;28;20554;-75
2021/04/01 12:03:03;;;;;;;49.95;31.23;;;;;;;;;;5093671;28;20028;-75
2021/04/01 12:05:31;;;;;;;46.58;29.77;;;;;;;;;;5092773;28;20093;-75
2021/04/01 12:07:57;;;;;;;47.65;30.08;;;;;;;;;;5093607;28;20402;-75
2021/04/01 12:10:23;;;;;;;50.60;33.50;;;;;;;;;;5093453;28;20027;-75
2021/04/01 12:12:55;;;;;;;47.40;31.27;;;;;;;;;;5093674;28;20577;-75
2021/04/01 12:15:36;;;;;;;41.10;28.73;;;;;;;;;;5092669;28;20032;-75
2021/04/01 12:18:08;;;;;;;53.05;32.08;;;;;;;;;;5093386;28;20097;-75
2021/04/01 12:20:35;;;;;;;47.35;29.48;;;;;;;;;;5092510;28;20511;-75
2021/04/01 12:23:11;;;;;;;48.38;31.65;;;;;;;;;;5093310;28;20059;-75
2021/04/01 12:25:37;;;;;;;54.42;31.98;;;;;;;;;;5093112;28;20035;-75
2021/04/01 12:28:03;;;;;;;57.67;33.05;;;;;;;;;;5092895;28;20401;-75
2021/04/01 12:30:32;;;;;;;55.72;33.40;;;;;;;;;;5093307;28;20093;-75
2021/04/01 12:33:21;;;;;;;53.13;32.97;;;;;;;;;;5093341;28;20082;-75
2021/04/01 12:36:00;;;;;;;50.65;34.33;;;;;;;;;;5093326;28;20032;-75
2021/04/01 12:38:28;;;;;;;47.33;30.70;;;;;;;;;;5092770;28;20044;-75
2021/04/01 12:40:53;;;;;;;51.03;33.08;;;;;;;;;;5093271;28;20036;-75
2021/04/01 12:43:18;;;;;;;44.65;30.95;;;;;;;;;;5093062;28;20040;-75
2021/04/01 12:45:53;;;;;;;51.00;34.17;;;;;;;;;;5093220;28;20036;-75
2021/04/01 12:48:18;;;;;;;45.05;31.42;;;;;;;;;;5093124;28;20030;-75
2021/04/01 12:50:46;;;;;;;52.92;34.97;;;;;;;;;;5091571;28;20381;-75
2021/04/01 12:53:16;;;;;;;52.90;34.65;;;;;;;;;;5092035;28;20515;-75
2021/04/01 12:55:48;;;;;;;59.33;40.67;;;;;;;;;;5093382;28;20367;-75
2021/04/01 12:58:41;;;;;;;55.53;38.72;;;;;;;;;;5092725;28;20040;-75
2021/04/01 13:01:24;;;;;;;69.45;43.35;;;;;;;;;;5091539;28;20035;-75
2021/04/01 13:03:52;;;;;;;64.70;39.17;;;;;;;;;;5090683;28;20097;-75
2021/04/01 13:06:26;;;;;;;59.70;37.75;;;;;;;;;;5092019;28;20032;-76
2021/04/01 13:08:57;;;;;;;60.10;40.13;;;;;;;;;;5092538;28;20067;-75
2021/04/01 13:11:23;;;;;;;59.80;39.08;;;;;;;;;;5089637;28;20065;-75
2021/04/01 13:13:49;;;;;;;56.13;37.25;;;;;;;;;;5092949;28;20411;-75
2021/04/01 13:16:15;;;;;;;63.30;37.88;;;;;;;;;;5091285;28;20032;-74
2021/04/01 13:18:40;;;;;;;61.33;37.22;;;;;;;;;;5094153;28;20051;-76
2021/04/01 13:21:17;;;;;;;58.25;36.97;;;;;;;;;;5096706;28;20032;-76
2021/04/01 13:23:46;;;;;;;62.70;38.25;;;;;;;;;;5096388;28;20036;-76
2021/04/01 13:26:13;;;;;;;58.40;36.47;;;;;;;;;;5096072;28;20448;-77
2021/04/01 13:28:41;;;;;;;55.88;36.25;;;;;;;;;;5095593;28;20083;-75
2021/04/01 13:31:12;;;;;;;55.20;36.35;;;;;;;;;;5096398;28;20115;-74
2021/04/01 13:34:01;;;;;;;48.80;31.08;;;;;;;;;;5095442;28;20027;-74
2021/04/01 13:36:36;;;;;;;49.28;31.90;;;;;;;;;;5095001;28;20036;-74
2021/04/01 13:39:04;;;;;;;47.30;31.38;;;;;;;;;;5095242;28;20106;-74
2021/04/01 13:41:42;;;;;;;56.33;30.42;;;;;;;;;;5096328;28;20024;-74
2021/04/01 13:44:09;;;;;;;45.15;28.25;;;;;;;;;;5096279;28;20024;-74
2021/04/01 13:46:35;;;;;;;52.10;30.05;;;;;;;;;;5096243;28;20058;-74
2021/04/01 13:49:01;;;;;;;46.45;28.25;;;;;;;;;;5096210;28;20546;-74
2021/04/01 13:51:30;;;;;;;43.85;26.67;;;;;;;;;;5094930;28;20397;-75
2021/04/01 13:54:11;;;;;;;46.13;29.13;;;;;;;;;;5094979;28;20036;-74
2021/04/01 13:56:44;;;;;;;47.17;29.85;;;;;;;;;;5077920;28;20484;-74
2021/04/01 13:59:20;;;;;;;46.70;26.77;;;;;;;;;;5094905;28;20550;-75
2021/04/01 14:10:13;;;;;;;27.27;17.00;;;;;;;;;;5095833;28;20036;-74
2021/04/01 14:12:40;;;;;;;28.38;15.48;;;;;;;;;;5095839;28;20039;-74
2021/04/01 14:15:09;;;;;;;22.95;12.38;;;;;;;;;;5095984;28;20389;-74
2021/04/01 14:17:36;;;;;;;26.05;12.27;;;;;;;;;;5095672;28;20043;-74
2021/04/01 14:20:06;;;;;;;18.75;10.68;;;;;;;;;;5094561;28;20042;-74
2021/04/01 14:22:33;;;;;;;26.13;11.43;;;;;;;;;;5095113;28;20036;-74
2021/04/01 14:25:04;;;;;;;15.63;6.90;;;;;;;;;;5095292;28;20061;-73
2021/04/01 14:27:35;;;;;;;14.80;5.97;;;;;;;;;;5095493;28;20043;-74
2021/04/01 14:30:04;;;;;;;16.55;5.72;;;;;;;;;;5095053;28;20588;-74
2021/04/01 14:32:30;;;;;;;11.88;4.28;;;;;;;;;;5095479;28;20096;-75
2021/04/01 14:34:59;;;;;;;19.20;5.95;;;;;;;;;;5095331;28;20073;-74
2021/04/01 14:37:29;;;;;;;9.57;4.45;;;;;;;;;;5095726;28;20031;-76
2021/04/01 14:39:57;;;;;;;15.30;4.50;;;;;;;;;;5094421;28;20381;-78
2021/04/01 14:42:34;;;;;;;12.95;5.75;;;;;;;;;;5097257;28;20096;-76
2021/04/01 14:45:03;;;;;;;12.20;5.10;;;;;;;;;;5094911;28;20055;-79
2021/04/01 14:47:29;;;;;;;7.55;4.40;;;;;;;;;;5096973;28;20042;-75
2021/04/01 14:49:56;;;;;;;8.60;3.15;;;;;;;;;;5094800;28;20038;-72
2021/04/01 14:52:24;;;;;;;8.85;2.67;;;;;;;;;;5095280;28;20048;-73
2021/04/01 14:54:54;;;;;;;12.57;3.08;;;;;;;;;;5094584;28;20074;-74
2021/04/01 14:57:21;;;;;;;5.45;2.65;;;;;;;;;;5094713;28;20024;-76
2021/04/01 14:59:47;;;;;;;6.05;2.35;;;;;;;;;;5095054;28;20036;-76
2021/04/01 15:02:16;;;;;;;7.30;2.30;;;;;;;;;;5093739;28;20503;-75
2021/04/01 15:04:42;;;;;;;8.13;2.40;;;;;;;;;;5094940;28;20369;-77
2021/04/01 15:07:09;;;;;;;5.85;1.98;;;;;;;;;;5094768;28;20127;-76
2021/04/01 15:09:35;;;;;;;8.43;1.88;;;;;;;;;;5094474;28;20115;-76
2021/04/01 15:12:00;;;;;;;7.65;2.15;;;;;;;;;;5094546;28;20179;-76
2021/04/01 15:14:26;;;;;;;8.65;2.05;;;;;;;;;;5093426;28;20092;-76
2021/04/01 15:16:52;;;;;;;8.23;3.03;;;;;;;;;;5092925;28;20040;-76
2021/04/01 15:19:19;;;;;;;3.28;1.60;;;;;;;;;;5094711;28;20036;-76
2021/04/01 15:21:46;;;;;;;8.05;2.20;;;;;;;;;;5093392;28;20035;-77
2021/04/01 15:24:14;;;;;;;4.68;2.05;;;;;;;;;;5093324;28;20047;-76
2021/04/01 15:26:41;;;;;;;7.03;2.17;;;;;;;;;;5094206;28;20474;-75
2021/04/01 15:29:07;;;;;;;8.07;2.83;;;;;;;;;;5094011;28;20470;-75
2021/04/01 15:31:32;;;;;;;3.50;1.65;;;;;;;;;;5091972;28;20125;-75
2021/04/01 15:33:58;;;;;;;6.80;2.13;;;;;;;;;;5094098;28;20066;-74
2021/04/01 15:36:24;;;;;;;10.52;2.25;;;;;;;;;;5094158;28;20046;-75
2021/04/01 15:38:50;;;;;;;8.82;1.92;;;;;;;;;;5093104;28;20048;-75
2021/04/01 15:41:17;;;;;;;4.47;1.67;;;;;;;;;;5093401;28;20036;-75
2021/04/01 15:43:42;;;;;;;6.18;1.83;;;;;;;;;;5091605;28;20028;-76
2021/04/01 15:46:07;;;;;;;14.73;4.53;;;;;;;;;;5093324;28;20074;-75
2021/04/01 15:48:36;;;;;;;8.85;3.15;;;;;;;;;;5096383;28;20036;-75
2021/04/01 15:51:04;;;;;;;5.68;2.75;;;;;;;;;;5076195;28;20089;-74
2021/04/01 15:53:30;;;;;;;5.70;2.90;;;;;;;;;;5094024;28;20028;-74
2021/04/01 15:55:57;;;;;;;4.22;2.40;;;;;;;;;;5092518;28;20506;-74
2021/04/01 15:58:22;;;;;;;6.97;4.10;;;;;;;;;;5093772;28;20082;-74
2021/04/01 16:00:48;;;;;;;4.53;2.63;;;;;;;;;;5093110;28;20070;-74
2021/04/01 16:03:14;;;;;;;4.72;2.10;;;;;;;;;;5093848;28;20028;-75
2021/04/01 16:05:39;;;;;;;10.80;3.88;;;;;;;;;;5093679;28;20475;-75
2021/04/01 16:08:05;;;;;;;4.07;1.10;;;;;;;;;;5093668;28;20032;-75
2021/04/01 16:10:31;;;;;;;7.82;1.60;;;;;;;;;;5092599;28;20466;-75
2021/04/01 16:13:05;;;;;;;9.80;3.42;;;;;;;;;;5092521;28;20039;-75
2021/04/01 16:15:32;;;;;;;5.20;2.50;;;;;;;;;;5093747;28;20036;-75
2021/04/01 16:17:57;;;;;;;8.07;2.88;;;;;;;;;;5090909;28;20097;-74
2021/04/01 16:20:23;;;;;;;5.97;2.10;;;;;;;;;;5093502;28;20118;-74